Time;durP1;ratioP1;P1;durP2;ratioP2;P2;SDS_P1;SDS_P2;PMS_P1;PMS_P2;Temp;Humidity;BMP_temperature;BMP_pressure;BME280_temperature;BME280_humidity;BME280_pressure;Samples;Min_cycle;Max_cycle;Signal;HPM_P1;HPM_P2
2023/04/13 00:00:31;;;;;;;13.95;8.88;;;;;;;;;;5104321;23;20094;-92
2023/04/13 00:02:59;;;;;;;16.73;9.23;;;;;;;;;;4894776;29;20120;-93
2023/04/13 00:08:01;;;;;;;18.35;9.10;;;;;;;;;;5051473;23;19944;-93
2023/04/13 00:10:27;;;;;;;14.40;8.23;;;;;;;;;;5086206;23;20045;-94
2023/04/13 00:12:57;;;;;;;15.75;8.70;;;;;;;;;;4952871;23;20094;-94
2023/04/13 00:18:03;;;;;;;15.57;8.93;;;;;;;;;;4896203;29;19923;-92
2023/04/13 00:20:32;;;;;;;15.55;8.40;;;;;;;;;;4904315;29;20079;-92
2023/04/13 00:22:58;;;;;;;16.40;8.73;;;;;;;;;;4899165;29;20025;-91
2023/04/13 00:25:24;;;;;;;16.45;9.10;;;;;;;;;;4898717;29;20033;-93
2023/04/13 00:30:26;;;;;;;16.38;9.55;;;;;;;;;;5274944;23;20071;-93
2023/04/13 00:40:50;;;;;;;18.90;9.13;;;;;;;;;;5280405;23;20086;-92
2023/04/13 00:45:55;;;;;;;15.93;9.07;;;;;;;;;;5207611;23;20144;-94
2023/04/13 00:50:53;;;;;;;14.50;8.95;;;;;;;;;;4882995;29;20045;-93
2023/04/13 00:56:04;;;;;;;18.37;9.23;;;;;;;;;;2881980;23;20239;31
2023/04/13 01:06:49;;;;;;;15.32;9.13;;;;;;;;;;5336440;23;20061;-92
2023/04/13 01:09:17;;;;;;;15.48;8.93;;;;;;;;;;5016670;23;20395;-94
2023/04/13 01:11:50;;;;;;;14.75;8.95;;;;;;;;;;4881936;29;20049;-93
2023/04/13 01:14:42;;;;;;;16.42;9.50;;;;;;;;;;5089622;23;20057;-92
2023/04/13 01:17:11;;;;;;;19.65;9.23;;;;;;;;;;4861401;29;20018;-91
2023/04/13 01:19:56;;;;;;;15.18;9.63;;;;;;;;;;4887063;29;20040;-96
2023/04/13 01:25:21;;;;;;;16.92;9.68;;;;;;;;;;5231352;23;20051;-92
2023/04/13 01:28:06;;;;;;;17.83;9.15;;;;;;;;;;5265040;23;20063;-93
2023/04/13 01:30:34;;;;;;;16.52;9.27;;;;;;;;;;4903162;29;20108;-91
2023/04/13 01:33:01;;;;;;;15.68;8.75;;;;;;;;;;4987432;23;20294;-92
2023/04/13 01:40:43;;;;;;;16.73;9.70;;;;;;;;;;5139825;23;20041;-91
2023/04/13 01:43:10;;;;;;;18.77;10.15;;;;;;;;;;4897128;29;20033;-91
2023/04/13 01:51:33;;;;;;;21.90;9.85;;;;;;;;;;4903732;23;20323;-91
2023/04/13 01:57:44;;;;;;;17.63;9.38;;;;;;;;;;4894001;29;20073;-96
2023/04/13 02:02:47;;;;;;;17.35;9.63;;;;;;;;;;5891400;23;20024;-92
2023/04/13 02:13:02;;;;;;;21.80;9.77;;;;;;;;;;4991605;23;20147;-92
2023/04/13 02:15:29;;;;;;;23.08;11.07;;;;;;;;;;5146699;23;20172;-93
2023/04/13 02:20:41;;;;;;;17.92;10.25;;;;;;;;;;5342689;23;21062;-93
2023/04/13 02:25:54;;;;;;;18.30;10.45;;;;;;;;;;5119824;23;20061;-92
2023/04/13 02:28:20;;;;;;;17.27;10.23;;;;;;;;;;5277385;23;20027;-93
2023/04/13 02:30:46;;;;;;;17.45;9.85;;;;;;;;;;5074454;23;20901;-93
2023/04/13 02:38:21;;;;;;;16.23;10.10;;;;;;;;;;5300767;23;20061;-93
2023/04/13 02:51:11;;;;;;;22.25;9.40;;;;;;;;;;5146626;23;20468;-93
2023/04/13 02:56:15;;;;;;;15.60;9.40;;;;;;;;;;5026511;23;20104;-93
2023/04/13 02:58:43;;;;;;;17.80;9.60;;;;;;;;;;5060714;23;20061;-93
2023/04/13 03:03:45;;;;;;;18.60;10.05;;;;;;;;;;5254265;23;20467;-92
2023/04/13 03:06:11;;;;;;;17.23;8.95;;;;;;;;;;5019076;23;20140;-92
2023/04/13 03:08:38;;;;;;;16.10;8.95;;;;;;;;;;4894641;29;20037;-91
2023/04/13 03:11:05;;;;;;;17.55;9.38;;;;;;;;;;5007316;23;20065;-92
2023/04/13 03:13:31;;;;;;;18.38;9.40;;;;;;;;;;4891706;29;20052;-92
2023/04/13 03:15:59;;;;;;;17.50;9.02;;;;;;;;;;4942580;23;20199;-93
2023/04/13 03:18:26;;;;;;;22.23;9.90;;;;;;;;;;4876021;29;20113;-94
2023/04/13 03:23:28;;;;;;;15.10;8.40;;;;;;;;;;4976722;23;20046;-92
2023/04/13 03:25:54;;;;;;;16.80;8.77;;;;;;;;;;4910947;29;20051;-93
2023/04/13 03:28:23;;;;;;;17.83;8.93;;;;;;;;;;4915242;29;20049;-95
2023/04/13 03:43:49;;;;;;;14.85;8.93;;;;;;;;;;4910141;23;20140;-93
2023/04/13 03:46:16;;;;;;;14.05;8.38;;;;;;;;;;4899060;29;20021;-92
2023/04/13 03:48:43;;;;;;;15.57;8.35;;;;;;;;;;4896755;29;20044;-94
2023/04/13 03:51:09;;;;;;;16.67;8.40;;;;;;;;;;4905136;29;20033;-94
2023/04/13 03:56:32;;;;;;;16.15;8.40;;;;;;;;;;5018917;23;20074;-92
2023/04/13 03:58:58;;;;;;;15.80;8.15;;;;;;;;;;4905671;29;20040;-92
2023/04/13 04:01:28;;;;;;;18.45;7.93;;;;;;;;;;4903824;29;20029;-92
2023/04/13 04:03:55;;;;;;;15.55;8.38;;;;;;;;;;5404221;23;20053;-92
2023/04/13 04:09:28;;;;;;;15.85;7.38;;;;;;;;;;4995603;23;20041;-95
2023/04/13 04:14:34;;;;;;;13.98;8.25;;;;;;;;;;4901049;23;20065;-92
2023/04/13 04:17:00;;;;;;;17.10;7.78;;;;;;;;;;4897550;29;20119;-93
2023/04/13 04:27:14;;;;;;;13.45;7.63;;;;;;;;;;5481610;23;19908;-90
2023/04/13 04:53:30;;;;;;;19.73;8.53;;;;;;;;;;4891630;29;20024;-92
2023/04/13 04:59:07;;;;;;;12.52;8.05;;;;;;;;;;5151630;23;20057;-92
2023/04/13 05:01:51;;;;;;;17.05;9.02;;;;;;;;;;5105271;23;20061;-94
2023/04/13 05:06:57;;;;;;;13.32;8.23;;;;;;;;;;4999969;23;20132;-93
2023/04/13 05:22:10;;;;;;;20.55;11.75;;;;;;;;;;4848666;29;20037;-91
2023/04/13 05:24:42;;;;;;;21.17;10.13;;;;;;;;;;4830933;29;20531;-91
2023/04/13 05:27:10;;;;;;;17.13;10.57;;;;;;;;;;4844786;29;20046;-92
2023/04/13 05:29:50;;;;;;;17.15;10.85;;;;;;;;;;4837019;29;20065;-91
2023/04/13 05:32:37;;;;;;;17.92;9.98;;;;;;;;;;4849661;29;20038;-92
2023/04/13 05:35:26;;;;;;;20.83;10.38;;;;;;;;;;4866486;29;20074;-92
2023/04/13 05:38:10;;;;;;;20.23;10.70;;;;;;;;;;4871310;29;20096;-92
2023/04/13 05:40:52;;;;;;;19.63;10.55;;;;;;;;;;4867340;29;20029;-91
2023/04/13 05:43:19;;;;;;;17.75;11.00;;;;;;;;;;4869211;29;20043;-91
2023/04/13 05:45:51;;;;;;;16.38;9.98;;;;;;;;;;4882534;29;20047;-94
2023/04/13 05:48:18;;;;;;;15.38;10.27;;;;;;;;;;4920582;29;20493;-91
2023/04/13 05:54:19;;;;;;;21.95;10.23;;;;;;;;;;4850743;29;20033;-96
2023/04/13 13:37:47;;;;;;;1.90;0.95;;;;;;;;;;5868446;23;20124;-95
2023/04/13 14:00:38;;;;;;;1.80;0.82;;;;;;;;;;5669079;23;20052;-95
2023/04/13 14:45:16;;;;;;;3.70;1.90;;;;;;;;;;4118429;23;20235;31
2023/04/13 15:01:46;;;;;;;2.47;1.52;;;;;;;;;;5285724;23;20068;-93
2023/04/13 15:34:56;;;;;;;;;;;;;;;;;;;;;
2023/04/13 15:37:29;;;;;;;3.05;2.33;;;;;;;;;;4890120;29;20145;-93
2023/04/13 16:58:44;;;;;;;3.97;1.75;;;;;;;;;;5472964;23;20049;-94
2023/04/13 17:01:23;;;;;;;2.60;1.50;;;;;;;;;;4899668;29;20048;-90
2023/04/13 17:03:53;;;;;;;3.67;1.80;;;;;;;;;;4896997;29;20099;-90
2023/04/13 17:06:38;;;;;;;2.78;1.35;;;;;;;;;;4887302;29;20116;-93
2023/04/13 17:09:10;;;;;;;2.83;1.60;;;;;;;;;;4893077;29;20128;-92
2023/04/13 17:11:39;;;;;;;4.05;2.53;;;;;;;;;;4888244;29;20033;-94
2023/04/13 17:14:14;;;;;;;5.45;3.10;;;;;;;;;;4886398;29;20120;-92
2023/04/13 17:16:40;;;;;;;3.97;2.13;;;;;;;;;;4883818;29;20072;-94
2023/04/13 17:19:07;;;;;;;3.10;1.60;;;;;;;;;;4886713;29;20126;-93
2023/04/13 17:21:34;;;;;;;4.00;1.73;;;;;;;;;;4895255;29;20085;-95
2023/04/13 17:24:09;;;;;;;4.53;2.22;;;;;;;;;;4870061;29;20506;-96
2023/04/13 17:42:17;;;;;;;4.55;2.90;;;;;;;;;;4864662;29;20048;-95
2023/04/13 17:47:54;;;;;;;3.92;2.47;;;;;;;;;;4852159;29;20560;-93
2023/04/13 18:01:42;;;;;;;3.35;2.20;;;;;;;;;;5744284;23;20080;-94
2023/04/13 18:04:12;;;;;;;3.67;2.50;;;;;;;;;;4905963;29;20161;-95
2023/04/13 18:06:47;;;;;;;3.30;2.50;;;;;;;;;;4899030;29;20041;-94
2023/04/13 18:09:23;;;;;;;5.75;3.00;;;;;;;;;;4895961;29;20049;-95
2023/04/13 18:11:50;;;;;;;6.03;4.20;;;;;;;;;;4902291;29;20033;-95
2023/04/13 18:14:16;;;;;;;6.10;4.22;;;;;;;;;;4898637;29;20032;-93
2023/04/13 18:16:42;;;;;;;5.55;3.50;;;;;;;;;;4899942;29;20025;-94
2023/04/13 18:19:26;;;;;;;5.38;3.80;;;;;;;;;;4907775;29;20037;-94
2023/04/13 18:21:52;;;;;;;7.45;5.55;;;;;;;;;;4904224;29;20060;-94
2023/04/13 18:32:45;;;;;;;17.70;9.15;;;;;;;;;;5496009;23;20057;-94
2023/04/13 18:35:12;;;;;;;9.30;6.03;;;;;;;;;;4885697;29;20041;-94
2023/04/13 18:37:38;;;;;;;8.48;4.57;;;;;;;;;;4888844;29;20061;-92
2023/04/13 18:49:15;;;;;;;5.57;4.53;;;;;;;;;;4925499;23;20068;-91
2023/04/13 18:51:37;;;;;;;9.70;6.03;;;;;;;;;;4882437;29;20072;-92
2023/04/13 18:54:03;;;;;;;18.85;9.35;;;;;;;;;;4897320;29;20281;-92
2023/04/13 18:56:29;;;;;;;19.80;8.85;;;;;;;;;;4894476;29;20045;-94
2023/04/13 18:58:58;;;;;;;24.40;11.48;;;;;;;;;;4881796;29;20097;-96
2023/04/13 19:01:30;;;;;;;27.63;12.27;;;;;;;;;;4883734;29;20029;-95
2023/04/13 19:03:56;;;;;;;12.57;6.88;;;;;;;;;;4880252;29;20025;-95
2023/04/13 19:06:25;;;;;;;15.07;7.80;;;;;;;;;;4881700;29;20542;-95
2023/04/13 19:08:52;;;;;;;16.48;9.07;;;;;;;;;;4888459;29;20033;-94
2023/04/13 19:11:18;;;;;;;17.35;10.10;;;;;;;;;;4880681;29;20269;-95
2023/04/13 19:13:46;;;;;;;13.23;7.85;;;;;;;;;;4884457;29;20032;-96
2023/04/13 19:16:13;;;;;;;13.00;8.07;;;;;;;;;;4886637;29;20029;-96
2023/04/13 19:18:39;;;;;;;8.88;6.25;;;;;;;;;;4885899;29;20032;-94
2023/04/13 19:21:05;;;;;;;8.52;5.70;;;;;;;;;;4886666;29;20029;-95
2023/04/13 19:23:32;;;;;;;7.47;5.55;;;;;;;;;;4885724;29;20037;-93
2023/04/13 19:25:58;;;;;;;8.73;6.07;;;;;;;;;;4886399;29;20331;-93
2023/04/13 19:28:25;;;;;;;7.13;5.63;;;;;;;;;;4886339;29;20033;-96
2023/04/13 19:30:52;;;;;;;9.35;5.82;;;;;;;;;;4894566;29;20064;-95
2023/04/13 19:33:18;;;;;;;9.65;6.15;;;;;;;;;;4921398;29;20041;-95
2023/04/13 19:35:47;;;;;;;6.47;5.30;;;;;;;;;;4920381;29;20052;-95
2023/04/13 19:38:18;;;;;;;7.25;6.20;;;;;;;;;;4921557;29;20033;-95
2023/04/13 19:40:44;;;;;;;8.13;5.90;;;;;;;;;;4920356;29;20386;-94
2023/04/13 19:43:22;;;;;;;9.68;7.13;;;;;;;;;;4920935;29;20071;-96
2023/04/13 19:58:46;;;;;;;6.80;5.63;;;;;;;;;;4873073;29;20497;-96
2023/04/13 20:01:21;;;;;;;9.30;6.82;;;;;;;;;;4899422;29;20039;-93
2023/04/13 20:03:50;;;;;;;8.55;7.55;;;;;;;;;;4890934;29;20048;-96
2023/04/13 20:06:34;;;;;;;7.85;6.05;;;;;;;;;;4889371;29;20018;-95
2023/04/13 20:09:20;;;;;;;10.13;7.38;;;;;;;;;;4905994;29;20332;-93
2023/04/13 20:11:46;;;;;;;9.57;7.60;;;;;;;;;;4882948;29;20105;-92
2023/04/13 20:14:13;;;;;;;11.82;9.18;;;;;;;;;;4901294;29;20648;-90
2023/04/13 20:16:42;;;;;;;12.10;8.30;;;;;;;;;;4868388;29;20032;-94
2023/04/13 20:19:08;;;;;;;10.88;8.32;;;;;;;;;;4866538;29;20033;-91
2023/04/13 20:21:35;;;;;;;10.90;8.35;;;;;;;;;;4867465;29;20479;-92
2023/04/13 20:24:02;;;;;;;9.63;7.40;;;;;;;;;;4866439;29;20069;-93
2023/04/13 20:26:29;;;;;;;9.05;7.60;;;;;;;;;;4862070;29;20021;-93
2023/04/13 20:28:58;;;;;;;10.45;7.50;;;;;;;;;;4862214;29;20506;-92
2023/04/13 20:31:25;;;;;;;10.27;7.53;;;;;;;;;;4862518;29;20030;-92
2023/04/13 20:33:54;;;;;;;10.55;6.97;;;;;;;;;;4863273;29;20033;-94
2023/04/13 20:36:23;;;;;;;10.80;6.65;;;;;;;;;;4863864;29;20123;-94
2023/04/13 20:38:50;;;;;;;12.88;7.18;;;;;;;;;;4869087;29;20428;-94
2023/04/13 20:41:17;;;;;;;9.32;6.43;;;;;;;;;;4879452;29;20030;-93
2023/04/13 20:43:44;;;;;;;7.68;5.82;;;;;;;;;;4879371;29;20034;-95
2023/04/13 20:46:10;;;;;;;8.65;6.60;;;;;;;;;;4878480;29;20092;-93
2023/04/13 20:48:43;;;;;;;8.63;6.90;;;;;;;;;;4880310;29;20490;-94
2023/04/13 20:51:11;;;;;;;10.13;6.80;;;;;;;;;;4878843;29;20047;-94
2023/04/13 20:53:38;;;;;;;9.13;7.10;;;;;;;;;;4879136;29;20056;-94
2023/04/13 20:56:08;;;;;;;8.65;6.68;;;;;;;;;;4887822;29;20031;-93
2023/04/13 20:58:36;;;;;;;7.97;6.00;;;;;;;;;;4887121;29;20074;-93
2023/04/13 21:01:09;;;;;;;9.60;6.20;;;;;;;;;;4869239;29;20057;-94
2023/04/13 21:03:37;;;;;;;11.40;7.30;;;;;;;;;;4895092;29;20061;-93
2023/04/13 21:06:04;;;;;;;11.30;8.55;;;;;;;;;;4893274;29;20054;-93
2023/04/13 21:08:45;;;;;;;11.10;7.60;;;;;;;;;;4894124;29;20033;-95
2023/04/13 21:11:13;;;;;;;8.75;6.35;;;;;;;;;;4864938;29;20034;-95
2023/04/13 21:13:48;;;;;;;10.73;6.70;;;;;;;;;;4895973;29;20389;-94
2023/04/13 21:16:14;;;;;;;10.38;7.03;;;;;;;;;;4893491;29;20033;-95
2023/04/13 21:18:42;;;;;;;11.00;6.20;;;;;;;;;;4895776;29;20085;-95
2023/04/13 21:27:49;;;;;;;12.10;7.55;;;;;;;;;;4862668;29;20041;-94
2023/04/13 21:30:16;;;;;;;13.15;8.73;;;;;;;;;;4893558;29;20415;-94
2023/04/13 21:32:42;;;;;;;11.10;7.70;;;;;;;;;;4894097;29;20086;-94
2023/04/13 21:35:08;;;;;;;9.77;7.25;;;;;;;;;;4895857;29;20025;-95
2023/04/13 21:37:37;;;;;;;11.18;8.02;;;;;;;;;;4893439;29;20036;-93
2023/04/13 21:40:04;;;;;;;13.77;8.90;;;;;;;;;;4895913;29;20060;-95
2023/04/13 21:42:30;;;;;;;13.43;10.27;;;;;;;;;;4894081;29;20033;-94
2023/04/13 21:47:29;;;;;;;13.70;9.27;;;;;;;;;;4861794;29;20046;-93
2023/04/13 21:49:55;;;;;;;13.57;10.20;;;;;;;;;;4861648;29;20117;-93
2023/04/13 21:52:21;;;;;;;14.23;9.77;;;;;;;;;;4860275;29;20029;-93
2023/04/13 21:54:47;;;;;;;16.05;11.15;;;;;;;;;;4862577;29;20554;-91
2023/04/13 21:57:13;;;;;;;14.75;10.35;;;;;;;;;;4867359;29;20172;-94
2023/04/13 21:59:42;;;;;;;11.13;9.05;;;;;;;;;;4862435;29;20037;-95
2023/04/13 22:02:09;;;;;;;15.73;11.25;;;;;;;;;;4859878;29;20120;-94
2023/04/13 22:04:35;;;;;;;19.02;13.30;;;;;;;;;;4861411;29;20546;-93
2023/04/13 22:07:01;;;;;;;15.52;11.00;;;;;;;;;;4861408;29;20025;-92
2023/04/13 22:09:27;;;;;;;14.95;11.45;;;;;;;;;;4860130;29;20042;-93
2023/04/13 22:11:53;;;;;;;16.67;12.45;;;;;;;;;;4860824;29;20036;-91
2023/04/13 22:14:22;;;;;;;16.92;11.85;;;;;;;;;;4859919;29;20125;-92
2023/04/13 22:16:49;;;;;;;15.48;11.65;;;;;;;;;;4862493;29;20078;-92
2023/04/13 22:19:15;;;;;;;19.08;12.07;;;;;;;;;;4864599;29;20034;-92
2023/04/13 22:21:41;;;;;;;23.38;14.60;;;;;;;;;;4865729;29;20033;-93
2023/04/13 22:24:17;;;;;;;21.48;13.60;;;;;;;;;;4865436;29;20041;-95
2023/04/13 22:26:53;;;;;;;16.75;11.73;;;;;;;;;;4867535;29;20025;-96
2023/04/13 22:29:19;;;;;;;17.80;13.55;;;;;;;;;;4863732;29;20034;-93
2023/04/13 22:31:45;;;;;;;22.05;14.80;;;;;;;;;;4868792;29;20053;-95
2023/04/13 22:34:17;;;;;;;24.58;14.63;;;;;;;;;;4868396;29;20033;-96
2023/04/13 22:36:43;;;;;;;18.38;12.30;;;;;;;;;;4864901;29;20065;-94
2023/04/13 22:39:09;;;;;;;16.35;11.68;;;;;;;;;;4859873;29;20125;-92
2023/04/13 22:41:35;;;;;;;20.60;13.48;;;;;;;;;;4864697;29;20106;-92
2023/04/13 22:44:02;;;;;;;16.05;11.55;;;;;;;;;;4860255;29;20030;-93
2023/04/13 22:46:28;;;;;;;20.67;12.75;;;;;;;;;;4861028;29;20403;-93
2023/04/13 22:48:54;;;;;;;17.02;12.73;;;;;;;;;;4858409;29;20049;-94
2023/04/13 22:51:20;;;;;;;16.27;11.95;;;;;;;;;;4860012;29;20026;-94
2023/04/13 22:53:49;;;;;;;19.13;13.52;;;;;;;;;;4860711;29;20038;-95
2023/04/13 22:56:16;;;;;;;18.33;12.50;;;;;;;;;;4860212;29;20084;-95
2023/04/13 22:58:42;;;;;;;17.83;13.00;;;;;;;;;;4874203;29;20037;-94
2023/04/13 23:01:08;;;;;;;17.00;12.73;;;;;;;;;;4859743;29;20026;-92
2023/04/13 23:03:34;;;;;;;19.25;12.57;;;;;;;;;;4860991;29;20038;-94
2023/04/13 23:06:00;;;;;;;15.52;11.15;;;;;;;;;;4859349;29;20113;-93
2023/04/13 23:08:28;;;;;;;23.10;14.27;;;;;;;;;;4858666;29;20033;-95
2023/04/13 23:10:54;;;;;;;20.83;13.27;;;;;;;;;;4859686;29;20069;-94
2023/04/13 23:13:20;;;;;;;18.10;13.07;;;;;;;;;;4859033;29;20048;-93
2023/04/13 23:15:46;;;;;;;15.38;11.68;;;;;;;;;;4858847;29;20101;-94
2023/04/13 23:18:13;;;;;;;17.88;11.93;;;;;;;;;;4859359;29;20359;-92
2023/04/13 23:20:42;;;;;;;20.02;13.32;;;;;;;;;;4857875;29;20031;-93
2023/04/13 23:23:08;;;;;;;20.52;13.32;;;;;;;;;;4875188;29;20041;-93
2023/04/13 23:25:34;;;;;;;22.52;13.00;;;;;;;;;;4876487;29;20029;-96
2023/04/13 23:28:01;;;;;;;20.85;13.85;;;;;;;;;;4875446;29;20506;-93
2023/04/13 23:30:27;;;;;;;19.88;12.85;;;;;;;;;;4876263;29;20044;-94
2023/04/13 23:32:53;;;;;;;21.58;13.82;;;;;;;;;;4874943;29;20430;-93
2023/04/13 23:35:19;;;;;;;20.60;13.18;;;;;;;;;;4874884;29;20399;-92
2023/04/13 23:37:48;;;;;;;23.88;14.43;;;;;;;;;;4877713;29;20025;-92
2023/04/13 23:40:14;;;;;;;15.82;11.95;;;;;;;;;;4875880;29;20124;-95
2023/04/13 23:42:46;;;;;;;16.20;11.70;;;;;;;;;;4875191;29;20121;-96
2023/04/13 23:45:12;;;;;;;16.95;11.43;;;;;;;;;;4857114;29;20182;-95
2023/04/13 23:47:51;;;;;;;14.35;10.68;;;;;;;;;;4888654;29;20045;-93
2023/04/13 23:50:20;;;;;;;14.77;9.65;;;;;;;;;;4896523;29;20065;-95
2023/04/13 23:52:46;;;;;;;16.13;11.50;;;;;;;;;;4881717;29;20069;-95
2023/04/13 23:55:12;;;;;;;16.35;11.82;;;;;;;;;;4878847;29;20037;-95
2023/04/13 23:57:38;;;;;;;13.85;10.40;;;;;;;;;;4877661;29;20096;-93
